sensor_id;sensor_type;location;lat;lon;timestamp;P1;durP1;ratioP1;P2;durP2;ratioP2
17173;SDS011;8702;48.130;-1.696;2024-02-21T00:00:06;3.85;;;1.90;;
17173;SDS011;8702;48.130;-1.696;2024-02-21T00:02:34;3.33;;;1.63;;
17173;SDS011;8702;48.130;-1.696;2024-02-21T00:05:02;3.85;;;1.90;;
17173;SDS011;8702;48.130;-1.696;2024-02-21T00:07:29;4.18;;;2.00;;
17173;SDS011;8702;48.130;-1.696;2024-02-21T00:09:57;3.47;;;1.83;;
17173;SDS011;8702;48.130;-1.696;2024-02-21T00:12:25;3.70;;;1.80;;
17173;SDS011;8702;48.130;-1.696;2024-02-21T00:14:52;3.95;;;1.92;;
17173;SDS011;8702;48.130;-1.696;2024-02-21T00:17:19;4.97;;;2.22;;
17173;SDS011;8702;48.130;-1.696;2024-02-21T00:19:46;3.53;;;1.77;;
17173;SDS011;8702;48.130;-1.696;2024-02-21T00:22:14;3.92;;;1.90;;
17173;SDS011;8702;48.130;-1.696;2024-02-21T00:24:41;2.87;;;1.90;;
17173;SDS011;8702;48.130;-1.696;2024-02-21T00:27:10;3.53;;;2.33;;
17173;SDS011;8702;48.130;-1.696;2024-02-21T00:29:37;2.95;;;1.75;;
17173;SDS011;8702;48.130;-1.696;2024-02-21T00:32:05;2.83;;;1.80;;
17173;SDS011;8702;48.130;-1.696;2024-02-21T00:34:32;2.95;;;1.90;;
17173;SDS011;8702;48.130;-1.696;2024-02-21T00:37:00;3.75;;;1.90;;
17173;SDS011;8702;48.130;-1.696;2024-02-21T00:39:27;4.18;;;1.98;;
17173;SDS011;8702;48.130;-1.696;2024-02-21T00:41:55;3.83;;;1.80;;
17173;SDS011;8702;48.130;-1.696;2024-02-21T00:44:23;3.65;;;2.00;;
17173;SDS011;8702;48.130;-1.696;2024-02-21T00:46:50;2.90;;;1.73;;
17173;SDS011;8702;48.130;-1.696;2024-02-21T00:49:18;4.80;;;1.88;;
17173;SDS011;8702;48.130;-1.696;2024-02-21T00:51:45;3.72;;;1.55;;
17173;SDS011;8702;48.130;-1.696;2024-02-21T00:54:12;4.30;;;2.00;;
17173;SDS011;8702;48.130;-1.696;2024-02-21T00:56:39;3.90;;;2.08;;
17173;SDS011;8702;48.130;-1.696;2024-02-21T00:59:06;5.73;;;2.27;;
17173;SDS011;8702;48.130;-1.696;2024-02-21T01:01:35;4.20;;;2.08;;
17173;SDS011;8702;48.130;-1.696;2024-02-21T01:04:02;5.78;;;2.03;;
17173;SDS011;8702;48.130;-1.696;2024-02-21T01:06:29;4.95;;;2.20;;
17173;SDS011;8702;48.130;-1.696;2024-02-21T01:08:56;5.22;;;2.25;;
17173;SDS011;8702;48.130;-1.696;2024-02-21T01:11:23;3.90;;;2.08;;
17173;SDS011;8702;48.130;-1.696;2024-02-21T01:13:50;5.00;;;1.92;;
17173;SDS011;8702;48.130;-1.696;2024-02-21T01:16:18;5.75;;;2.50;;
17173;SDS011;8702;48.130;-1.696;2024-02-21T01:18:46;5.07;;;2.13;;
17173;SDS011;8702;48.130;-1.696;2024-02-21T01:21:13;6.93;;;2.20;;
17173;SDS011;8702;48.130;-1.696;2024-02-21T01:23:40;5.88;;;2.28;;
17173;SDS011;8702;48.130;-1.696;2024-02-21T01:26:07;6.03;;;2.40;;
17173;SDS011;8702;48.130;-1.696;2024-02-21T01:28:38;4.90;;;2.20;;
17173;SDS011;8702;48.130;-1.696;2024-02-21T01:31:05;5.10;;;2.15;;
17173;SDS011;8702;48.130;-1.696;2024-02-21T01:33:32;5.43;;;2.13;;
17173;SDS011;8702;48.130;-1.696;2024-02-21T01:36:02;4.85;;;2.40;;
17173;SDS011;8702;48.130;-1.696;2024-02-21T01:38:29;3.78;;;2.28;;
17173;SDS011;8702;48.130;-1.696;2024-02-21T01:40:57;3.63;;;2.20;;
17173;SDS011;8702;48.130;-1.696;2024-02-21T01:43:24;4.13;;;2.28;;
17173;SDS011;8702;48.130;-1.696;2024-02-21T01:45:52;5.50;;;2.28;;
17173;SDS011;8702;48.130;-1.696;2024-02-21T01:48:19;5.07;;;2.50;;
17173;SDS011;8702;48.130;-1.696;2024-02-21T01:50:46;5.97;;;2.72;;
17173;SDS011;8702;48.130;-1.696;2024-02-21T01:53:16;5.32;;;2.30;;
17173;SDS011;8702;48.130;-1.696;2024-02-21T01:55:44;5.60;;;2.45;;
17173;SDS011;8702;48.130;-1.696;2024-02-21T01:58:11;6.65;;;2.47;;
17173;SDS011;8702;48.130;-1.696;2024-02-21T02:00:39;5.03;;;2.40;;
17173;SDS011;8702;48.130;-1.696;2024-02-21T02:03:07;5.40;;;2.30;;
17173;SDS011;8702;48.130;-1.696;2024-02-21T02:05:35;4.90;;;2.13;;
17173;SDS011;8702;48.130;-1.696;2024-02-21T02:08:03;4.85;;;2.30;;
17173;SDS011;8702;48.130;-1.696;2024-02-21T02:10:31;4.00;;;2.20;;
17173;SDS011;8702;48.130;-1.696;2024-02-21T02:12:58;5.25;;;2.10;;
17173;SDS011;8702;48.130;-1.696;2024-02-21T02:15:26;4.55;;;2.20;;
17173;SDS011;8702;48.130;-1.696;2024-02-21T02:17:53;4.13;;;2.05;;
17173;SDS011;8702;48.130;-1.696;2024-02-21T02:20:20;6.03;;;2.40;;
17173;SDS011;8702;48.130;-1.696;2024-02-21T02:22:47;7.33;;;2.23;;
17173;SDS011;8702;48.130;-1.696;2024-02-21T02:25:17;4.78;;;2.13;;
17173;SDS011;8702;48.130;-1.696;2024-02-21T02:27:44;4.22;;;1.70;;
17173;SDS011;8702;48.130;-1.696;2024-02-21T02:30:11;4.40;;;2.10;;
17173;SDS011;8702;48.130;-1.696;2024-02-21T02:32:38;5.20;;;1.90;;
17173;SDS011;8702;48.130;-1.696;2024-02-21T02:35:06;3.55;;;1.70;;
17173;SDS011;8702;48.130;-1.696;2024-02-21T02:37:33;3.57;;;1.80;;
17173;SDS011;8702;48.130;-1.696;2024-02-21T02:40:00;2.80;;;1.50;;
17173;SDS011;8702;48.130;-1.696;2024-02-21T02:42:29;4.53;;;1.80;;
17173;SDS011;8702;48.130;-1.696;2024-02-21T02:44:56;2.50;;;1.50;;
17173;SDS011;8702;48.130;-1.696;2024-02-21T02:47:23;3.58;;;1.80;;
17173;SDS011;8702;48.130;-1.696;2024-02-21T02:49:50;3.85;;;1.77;;
17173;SDS011;8702;48.130;-1.696;2024-02-21T02:52:17;6.30;;;1.92;;
17173;SDS011;8702;48.130;-1.696;2024-02-21T02:54:44;4.78;;;1.70;;
17173;SDS011;8702;48.130;-1.696;2024-02-21T02:57:16;6.10;;;2.03;;
17173;SDS011;8702;48.130;-1.696;2024-02-21T02:59:48;6.23;;;1.97;;
17173;SDS011;8702;48.130;-1.696;2024-02-21T03:02:15;5.07;;;1.80;;
17173;SDS011;8702;48.130;-1.696;2024-02-21T03:04:42;5.72;;;1.58;;
17173;SDS011;8702;48.130;-1.696;2024-02-21T03:07:09;6.10;;;2.03;;
17173;SDS011;8702;48.130;-1.696;2024-02-21T03:09:37;5.82;;;2.10;;
17173;SDS011;8702;48.130;-1.696;2024-02-21T03:12:05;6.38;;;1.80;;
17173;SDS011;8702;48.130;-1.696;2024-02-21T03:14:32;4.32;;;1.80;;
17173;SDS011;8702;48.130;-1.696;2024-02-21T03:17:01;6.27;;;2.10;;
17173;SDS011;8702;48.130;-1.696;2024-02-21T03:19:28;5.05;;;1.73;;
17173;SDS011;8702;48.130;-1.696;2024-02-21T03:21:56;4.93;;;1.63;;
17173;SDS011;8702;48.130;-1.696;2024-02-21T03:24:23;5.50;;;1.63;;
17173;SDS011;8702;48.130;-1.696;2024-02-21T03:26:50;3.80;;;1.48;;
17173;SDS011;8702;48.130;-1.696;2024-02-21T03:29:17;5.82;;;1.60;;
17173;SDS011;8702;48.130;-1.696;2024-02-21T03:31:44;4.35;;;1.83;;
17173;SDS011;8702;48.130;-1.696;2024-02-21T03:34:13;4.88;;;1.85;;
17173;SDS011;8702;48.130;-1.696;2024-02-21T03:36:40;3.65;;;1.65;;
17173;SDS011;8702;48.130;-1.696;2024-02-21T03:39:07;6.43;;;1.70;;
17173;SDS011;8702;48.130;-1.696;2024-02-21T03:41:34;5.70;;;1.77;;
17173;SDS011;8702;48.130;-1.696;2024-02-21T03:44:01;4.65;;;1.73;;
17173;SDS011;8702;48.130;-1.696;2024-02-21T03:46:30;5.80;;;1.80;;
17173;SDS011;8702;48.130;-1.696;2024-02-21T03:48:57;5.88;;;1.80;;
17173;SDS011;8702;48.130;-1.696;2024-02-21T03:51:27;6.43;;;1.80;;
17173;SDS011;8702;48.130;-1.696;2024-02-21T03:53:54;6.85;;;2.00;;
17173;SDS011;8702;48.130;-1.696;2024-02-21T03:56:21;7.47;;;2.00;;
17173;SDS011;8702;48.130;-1.696;2024-02-21T03:58:48;3.92;;;1.83;;
17173;SDS011;8702;48.130;-1.696;2024-02-21T04:01:15;4.83;;;1.90;;
17173;SDS011;8702;48.130;-1.696;2024-02-21T04:03:43;5.82;;;1.90;;
17173;SDS011;8702;48.130;-1.696;2024-02-21T04:06:10;4.55;;;1.80;;
17173;SDS011;8702;48.130;-1.696;2024-02-21T04:08:38;6.13;;;1.73;;
17173;SDS011;8702;48.130;-1.696;2024-02-21T04:11:06;4.05;;;1.95;;
17173;SDS011;8702;48.130;-1.696;2024-02-21T04:13:33;4.47;;;1.80;;
17173;SDS011;8702;48.130;-1.696;2024-02-21T04:16:00;4.50;;;2.13;;
17173;SDS011;8702;48.130;-1.696;2024-02-21T04:18:28;5.20;;;1.90;;
17173;SDS011;8702;48.130;-1.696;2024-02-21T04:20:55;7.13;;;2.40;;
17173;SDS011;8702;48.130;-1.696;2024-02-21T04:23:22;7.93;;;2.28;;
17173;SDS011;8702;48.130;-1.696;2024-02-21T04:25:51;6.13;;;2.10;;
17173;SDS011;8702;48.130;-1.696;2024-02-21T04:28:18;5.53;;;2.40;;
17173;SDS011;8702;48.130;-1.696;2024-02-21T04:30:45;5.00;;;2.30;;
17173;SDS011;8702;48.130;-1.696;2024-02-21T04:33:12;8.00;;;2.55;;
17173;SDS011;8702;48.130;-1.696;2024-02-21T04:35:39;5.68;;;2.50;;
17173;SDS011;8702;48.130;-1.696;2024-02-21T04:38:07;4.00;;;2.27;;
17173;SDS011;8702;48.130;-1.696;2024-02-21T04:40:34;6.75;;;2.28;;
17173;SDS011;8702;48.130;-1.696;2024-02-21T04:43:02;5.28;;;2.20;;
17173;SDS011;8702;48.130;-1.696;2024-02-21T04:45:30;4.45;;;2.30;;
17173;SDS011;8702;48.130;-1.696;2024-02-21T04:47:57;3.90;;;2.40;;
17173;SDS011;8702;48.130;-1.696;2024-02-21T04:50:24;4.73;;;2.47;;
17173;SDS011;8702;48.130;-1.696;2024-02-21T04:52:52;5.47;;;2.50;;
17173;SDS011;8702;48.130;-1.696;2024-02-21T04:55:19;4.68;;;2.45;;
17173;SDS011;8702;48.130;-1.696;2024-02-21T04:57:46;6.07;;;2.40;;
17173;SDS011;8702;48.130;-1.696;2024-02-21T05:00:15;5.13;;;2.50;;
17173;SDS011;8702;48.130;-1.696;2024-02-21T05:02:42;5.18;;;2.50;;
17173;SDS011;8702;48.130;-1.696;2024-02-21T05:05:09;3.88;;;2.38;;
17173;SDS011;8702;48.130;-1.696;2024-02-21T05:07:37;5.57;;;2.47;;
17173;SDS011;8702;48.130;-1.696;2024-02-21T05:10:04;3.70;;;2.30;;
17173;SDS011;8702;48.130;-1.696;2024-02-21T05:12:30;5.47;;;2.70;;
17173;SDS011;8702;48.130;-1.696;2024-02-21T05:14:57;5.78;;;2.63;;
17173;SDS011;8702;48.130;-1.696;2024-02-21T05:17:26;3.97;;;2.50;;
17173;SDS011;8702;48.130;-1.696;2024-02-21T05:19:53;5.93;;;2.42;;
17173;SDS011;8702;48.130;-1.696;2024-02-21T05:22:20;5.78;;;2.55;;
17173;SDS011;8702;48.130;-1.696;2024-02-21T05:24:47;4.28;;;2.22;;
17173;SDS011;8702;48.130;-1.696;2024-02-21T05:27:14;8.73;;;2.60;;
17173;SDS011;8702;48.130;-1.696;2024-02-21T05:29:41;5.30;;;2.28;;
17173;SDS011;8702;48.130;-1.696;2024-02-21T05:32:09;4.80;;;2.30;;
17173;SDS011;8702;48.130;-1.696;2024-02-21T05:34:38;5.30;;;2.40;;
17173;SDS011;8702;48.130;-1.696;2024-02-21T05:37:05;3.45;;;2.13;;
17173;SDS011;8702;48.130;-1.696;2024-02-21T05:39:32;3.92;;;2.13;;
17173;SDS011;8702;48.130;-1.696;2024-02-21T05:41:59;5.47;;;2.08;;
17173;SDS011;8702;48.130;-1.696;2024-02-21T05:44:26;6.70;;;2.20;;
17173;SDS011;8702;48.130;-1.696;2024-02-21T05:46:53;6.30;;;2.08;;
17173;SDS011;8702;48.130;-1.696;2024-02-21T05:49:20;3.97;;;2.08;;
17173;SDS011;8702;48.130;-1.696;2024-02-21T05:51:50;4.88;;;2.20;;
17173;SDS011;8702;48.130;-1.696;2024-02-21T05:54:17;4.45;;;2.28;;
17173;SDS011;8702;48.130;-1.696;2024-02-21T05:56:44;3.97;;;2.20;;
17173;SDS011;8702;48.130;-1.696;2024-02-21T05:59:12;4.32;;;2.10;;
17173;SDS011;8702;48.130;-1.696;2024-02-21T06:01:39;4.85;;;2.20;;
17173;SDS011;8702;48.130;-1.696;2024-02-21T06:04:06;5.03;;;2.10;;
17173;SDS011;8702;48.130;-1.696;2024-02-21T06:06:33;3.97;;;2.10;;
17173;SDS011;8702;48.130;-1.696;2024-02-21T06:09:02;6.97;;;2.40;;
17173;SDS011;8702;48.130;-1.696;2024-02-21T06:11:29;4.78;;;2.15;;
17173;SDS011;8702;48.130;-1.696;2024-02-21T06:13:56;3.35;;;1.90;;
17173;SDS011;8702;48.130;-1.696;2024-02-21T06:16:23;3.40;;;1.83;;
17173;SDS011;8702;48.130;-1.696;2024-02-21T06:18:50;5.40;;;2.00;;
17173;SDS011;8702;48.130;-1.696;2024-02-21T06:21:17;3.33;;;2.00;;
17173;SDS011;8702;48.130;-1.696;2024-02-21T06:23:44;5.00;;;2.25;;
17173;SDS011;8702;48.130;-1.696;2024-02-21T06:26:13;6.18;;;2.38;;
17173;SDS011;8702;48.130;-1.696;2024-02-21T06:28:40;5.47;;;2.30;;
17173;SDS011;8702;48.130;-1.696;2024-02-21T06:31:07;5.80;;;1.92;;
17173;SDS011;8702;48.130;-1.696;2024-02-21T06:33:35;6.50;;;2.10;;
17173;SDS011;8702;48.130;-1.696;2024-02-21T06:36:02;5.32;;;2.30;;
17173;SDS011;8702;48.130;-1.696;2024-02-21T06:38:29;5.28;;;2.22;;
17173;SDS011;8702;48.130;-1.696;2024-02-21T06:40:56;4.28;;;2.10;;
17173;SDS011;8702;48.130;-1.696;2024-02-21T06:43:26;8.43;;;2.40;;
17173;SDS011;8702;48.130;-1.696;2024-02-21T06:45:54;6.20;;;2.28;;
17173;SDS011;8702;48.130;-1.696;2024-02-21T06:48:21;5.32;;;2.60;;
17173;SDS011;8702;48.130;-1.696;2024-02-21T06:50:49;5.63;;;2.90;;
17173;SDS011;8702;48.130;-1.696;2024-02-21T06:53:16;7.70;;;2.57;;
17173;SDS011;8702;48.130;-1.696;2024-02-21T06:55:43;8.48;;;2.65;;
17173;SDS011;8702;48.130;-1.696;2024-02-21T06:58:10;7.38;;;2.65;;
17173;SDS011;8702;48.130;-1.696;2024-02-21T07:00:39;8.48;;;2.60;;
17173;SDS011;8702;48.130;-1.696;2024-02-21T07:03:07;6.68;;;2.53;;
17173;SDS011;8702;48.130;-1.696;2024-02-21T07:05:34;5.53;;;2.40;;
17173;SDS011;8702;48.130;-1.696;2024-02-21T07:08:01;5.23;;;2.50;;
17173;SDS011;8702;48.130;-1.696;2024-02-21T07:10:29;7.25;;;2.90;;
17173;SDS011;8702;48.130;-1.696;2024-02-21T07:12:56;9.50;;;2.92;;
17173;SDS011;8702;48.130;-1.696;2024-02-21T07:15:23;6.65;;;2.70;;
17173;SDS011;8702;48.130;-1.696;2024-02-21T07:17:54;9.03;;;2.87;;
17173;SDS011;8702;48.130;-1.696;2024-02-21T07:20:22;11.45;;;2.63;;
17173;SDS011;8702;48.130;-1.696;2024-02-21T07:22:49;7.45;;;2.92;;
17173;SDS011;8702;48.130;-1.696;2024-02-21T07:25:16;6.55;;;2.70;;
17173;SDS011;8702;48.130;-1.696;2024-02-21T07:27:43;7.85;;;2.85;;
17173;SDS011;8702;48.130;-1.696;2024-02-21T07:30:11;8.50;;;2.40;;
17173;SDS011;8702;48.130;-1.696;2024-02-21T07:32:38;7.33;;;2.70;;
17173;SDS011;8702;48.130;-1.696;2024-02-21T07:35:07;8.55;;;2.70;;
17173;SDS011;8702;48.130;-1.696;2024-02-21T07:37:35;8.18;;;3.10;;
17173;SDS011;8702;48.130;-1.696;2024-02-21T07:40:04;8.02;;;2.83;;
17173;SDS011;8702;48.130;-1.696;2024-02-21T07:42:31;9.95;;;3.15;;
17173;SDS011;8702;48.130;-1.696;2024-02-21T07:44:58;9.35;;;3.33;;
17173;SDS011;8702;48.130;-1.696;2024-02-21T07:47:25;9.93;;;3.45;;
17173;SDS011;8702;48.130;-1.696;2024-02-21T07:49:52;9.38;;;3.15;;
17173;SDS011;8702;48.130;-1.696;2024-02-21T07:52:21;6.45;;;2.85;;
17173;SDS011;8702;48.130;-1.696;2024-02-21T07:54:48;12.48;;;3.40;;
17173;SDS011;8702;48.130;-1.696;2024-02-21T07:57:15;9.02;;;3.20;;
17173;SDS011;8702;48.130;-1.696;2024-02-21T07:59:42;10.07;;;3.20;;
17173;SDS011;8702;48.130;-1.696;2024-02-21T08:02:09;11.02;;;3.40;;
17173;SDS011;8702;48.130;-1.696;2024-02-21T08:04:37;7.03;;;3.13;;
17173;SDS011;8702;48.130;-1.696;2024-02-21T08:07:04;7.90;;;2.93;;
17173;SDS011;8702;48.130;-1.696;2024-02-21T08:09:32;8.75;;;3.05;;
17173;SDS011;8702;48.130;-1.696;2024-02-21T08:12:00;9.98;;;3.58;;
17173;SDS011;8702;48.130;-1.696;2024-02-21T08:14:27;12.70;;;3.20;;
17173;SDS011;8702;48.130;-1.696;2024-02-21T08:16:54;8.02;;;3.28;;
17173;SDS011;8702;48.130;-1.696;2024-02-21T08:19:21;8.57;;;3.25;;
17173;SDS011;8702;48.130;-1.696;2024-02-21T08:21:48;13.88;;;3.22;;
17173;SDS011;8702;48.130;-1.696;2024-02-21T08:24:16;9.82;;;3.20;;
17173;SDS011;8702;48.130;-1.696;2024-02-21T08:26:44;12.15;;;3.70;;
17173;SDS011;8702;48.130;-1.696;2024-02-21T08:29:11;13.73;;;3.78;;
17173;SDS011;8702;48.130;-1.696;2024-02-21T08:31:39;12.88;;;3.95;;
17173;SDS011;8702;48.130;-1.696;2024-02-21T08:34:06;10.47;;;3.60;;
17173;SDS011;8702;48.130;-1.696;2024-02-21T08:36:33;10.27;;;3.50;;
17173;SDS011;8702;48.130;-1.696;2024-02-21T08:39:01;8.55;;;3.22;;
17173;SDS011;8702;48.130;-1.696;2024-02-21T08:41:30;8.83;;;3.30;;
17173;SDS011;8702;48.130;-1.696;2024-02-21T08:43:59;7.53;;;2.80;;
17173;SDS011;8702;48.130;-1.696;2024-02-21T08:46:26;10.25;;;3.45;;
17173;SDS011;8702;48.130;-1.696;2024-02-21T08:48:54;10.23;;;3.38;;
17173;SDS011;8702;48.130;-1.696;2024-02-21T08:51:21;8.55;;;3.30;;
17173;SDS011;8702;48.130;-1.696;2024-02-21T08:53:48;9.57;;;3.25;;
17173;SDS011;8702;48.130;-1.696;2024-02-21T08:56:16;9.82;;;3.30;;
17173;SDS011;8702;48.130;-1.696;2024-02-21T08:58:43;10.93;;;3.17;;
17173;SDS011;8702;48.130;-1.696;2024-02-21T09:01:13;10.18;;;3.20;;
17173;SDS011;8702;48.130;-1.696;2024-02-21T09:03:40;9.75;;;3.10;;
17173;SDS011;8702;48.130;-1.696;2024-02-21T09:06:10;8.65;;;2.70;;
17173;SDS011;8702;48.130;-1.696;2024-02-21T09:08:38;9.52;;;3.03;;
17173;SDS011;8702;48.130;-1.696;2024-02-21T09:11:05;8.68;;;2.80;;
17173;SDS011;8702;48.130;-1.696;2024-02-21T09:13:33;10.48;;;3.10;;
17173;SDS011;8702;48.130;-1.696;2024-02-21T09:16:00;7.65;;;2.80;;
17173;SDS011;8702;48.130;-1.696;2024-02-21T09:18:29;10.00;;;3.25;;
17173;SDS011;8702;48.130;-1.696;2024-02-21T09:20:56;10.35;;;3.00;;
17173;SDS011;8702;48.130;-1.696;2024-02-21T09:23:23;8.05;;;3.03;;
17173;SDS011;8702;48.130;-1.696;2024-02-21T09:25:51;11.27;;;4.00;;
17173;SDS011;8702;48.130;-1.696;2024-02-21T09:28:18;13.32;;;3.28;;
17173;SDS011;8702;48.130;-1.696;2024-02-21T09:30:45;10.77;;;3.45;;
17173;SDS011;8702;48.130;-1.696;2024-02-21T09:33:12;10.13;;;3.40;;
17173;SDS011;8702;48.130;-1.696;2024-02-21T09:35:41;9.82;;;3.55;;
17173;SDS011;8702;48.130;-1.696;2024-02-21T09:38:08;12.07;;;3.22;;
17173;SDS011;8702;48.130;-1.696;2024-02-21T09:40:35;9.05;;;3.25;;
17173;SDS011;8702;48.130;-1.696;2024-02-21T09:43:04;11.02;;;3.38;;
17173;SDS011;8702;48.130;-1.696;2024-02-21T09:45:32;9.73;;;3.30;;
17173;SDS011;8702;48.130;-1.696;2024-02-21T09:48:13;8.50;;;3.37;;
17173;SDS011;8702;48.130;-1.696;2024-02-21T09:50:44;12.25;;;3.45;;
17173;SDS011;8702;48.130;-1.696;2024-02-21T09:53:11;11.27;;;3.53;;
17173;SDS011;8702;48.130;-1.696;2024-02-21T09:55:39;11.10;;;3.38;;
17173;SDS011;8702;48.130;-1.696;2024-02-21T09:58:07;12.37;;;3.47;;
17173;SDS011;8702;48.130;-1.696;2024-02-21T10:00:35;11.55;;;4.03;;
17173;SDS011;8702;48.130;-1.696;2024-02-21T10:03:02;8.13;;;3.30;;
17173;SDS011;8702;48.130;-1.696;2024-02-21T10:05:34;10.47;;;3.47;;
17173;SDS011;8702;48.130;-1.696;2024-02-21T10:08:03;8.93;;;3.38;;
17173;SDS011;8702;48.130;-1.696;2024-02-21T10:10:40;8.70;;;3.30;;
17173;SDS011;8702;48.130;-1.696;2024-02-21T10:13:07;13.52;;;3.92;;
17173;SDS011;8702;48.130;-1.696;2024-02-21T10:15:34;13.05;;;3.42;;
17173;SDS011;8702;48.130;-1.696;2024-02-21T10:18:01;11.65;;;3.92;;
17173;SDS011;8702;48.130;-1.696;2024-02-21T10:20:29;15.18;;;4.25;;
17173;SDS011;8702;48.130;-1.696;2024-02-21T10:23:04;13.05;;;3.80;;
17173;SDS011;8702;48.130;-1.696;2024-02-21T10:25:34;14.70;;;3.50;;
17173;SDS011;8702;48.130;-1.696;2024-02-21T10:28:03;10.95;;;3.60;;
17173;SDS011;8702;48.130;-1.696;2024-02-21T10:30:30;12.93;;;3.88;;
17173;SDS011;8702;48.130;-1.696;2024-02-21T10:32:57;12.00;;;3.77;;
17173;SDS011;8702;48.130;-1.696;2024-02-21T10:35:25;10.68;;;3.70;;
17173;SDS011;8702;48.130;-1.696;2024-02-21T10:37:53;11.05;;;3.70;;
17173;SDS011;8702;48.130;-1.696;2024-02-21T10:40:22;11.70;;;3.63;;
17173;SDS011;8702;48.130;-1.696;2024-02-21T10:42:50;11.25;;;3.88;;
17173;SDS011;8702;48.130;-1.696;2024-02-21T10:45:19;11.75;;;3.80;;
17173;SDS011;8702;48.130;-1.696;2024-02-21T10:47:47;11.70;;;4.00;;
17173;SDS011;8702;48.130;-1.696;2024-02-21T10:50:17;14.00;;;3.70;;
17173;SDS011;8702;48.130;-1.696;2024-02-21T10:52:47;14.20;;;3.75;;
17173;SDS011;8702;48.130;-1.696;2024-02-21T10:55:16;10.07;;;3.47;;
17173;SDS011;8702;48.130;-1.696;2024-02-21T10:57:49;13.05;;;3.70;;
17173;SDS011;8702;48.130;-1.696;2024-02-21T11:00:17;11.67;;;3.70;;
17173;SDS011;8702;48.130;-1.696;2024-02-21T11:02:44;10.63;;;3.27;;
17173;SDS011;8702;48.130;-1.696;2024-02-21T11:05:12;9.77;;;3.38;;
17173;SDS011;8702;48.130;-1.696;2024-02-21T11:07:41;11.60;;;3.67;;
17173;SDS011;8702;48.130;-1.696;2024-02-21T11:10:20;10.20;;;3.40;;
17173;SDS011;8702;48.130;-1.696;2024-02-21T11:12:47;9.45;;;3.25;;
17173;SDS011;8702;48.130;-1.696;2024-02-21T11:15:16;9.60;;;3.42;;
17173;SDS011;8702;48.130;-1.696;2024-02-21T11:17:53;8.88;;;3.55;;
17173;SDS011;8702;48.130;-1.696;2024-02-21T11:20:20;10.15;;;3.20;;
17173;SDS011;8702;48.130;-1.696;2024-02-21T11:22:48;10.77;;;3.42;;
17173;SDS011;8702;48.130;-1.696;2024-02-21T11:25:21;11.30;;;3.37;;
17173;SDS011;8702;48.130;-1.696;2024-02-21T11:27:48;10.68;;;3.10;;
17173;SDS011;8702;48.130;-1.696;2024-02-21T11:30:17;10.60;;;2.83;;
17173;SDS011;8702;48.130;-1.696;2024-02-21T11:32:47;10.73;;;3.50;;
17173;SDS011;8702;48.130;-1.696;2024-02-21T11:35:19;10.18;;;3.20;;
17173;SDS011;8702;48.130;-1.696;2024-02-21T11:37:46;10.57;;;3.20;;
17173;SDS011;8702;48.130;-1.696;2024-02-21T11:40:13;9.07;;;3.35;;
17173;SDS011;8702;48.130;-1.696;2024-02-21T11:42:40;12.35;;;3.53;;
17173;SDS011;8702;48.130;-1.696;2024-02-21T11:45:08;8.00;;;3.25;;
17173;SDS011;8702;48.130;-1.696;2024-02-21T11:47:36;9.98;;;3.17;;
17173;SDS011;8702;48.130;-1.696;2024-02-21T11:50:09;7.47;;;3.08;;
17173;SDS011;8702;48.130;-1.696;2024-02-21T11:52:36;9.30;;;2.83;;
17173;SDS011;8702;48.130;-1.696;2024-02-21T11:55:04;7.85;;;3.05;;
17173;SDS011;8702;48.130;-1.696;2024-02-21T11:57:33;11.70;;;3.30;;
17173;SDS011;8702;48.130;-1.696;2024-02-21T12:00:13;9.50;;;3.13;;
17173;SDS011;8702;48.130;-1.696;2024-02-21T12:02:42;10.00;;;3.05;;
17173;SDS011;8702;48.130;-1.696;2024-02-21T12:05:10;10.15;;;3.17;;
17173;SDS011;8702;48.130;-1.696;2024-02-21T12:07:37;6.93;;;2.70;;
17173;SDS011;8702;48.130;-1.696;2024-02-21T12:10:06;8.68;;;3.00;;
17173;SDS011;8702;48.130;-1.696;2024-02-21T12:12:35;9.48;;;3.10;;
17173;SDS011;8702;48.130;-1.696;2024-02-21T12:15:03;10.70;;;2.93;;
17173;SDS011;8702;48.130;-1.696;2024-02-21T12:17:30;10.23;;;3.17;;
17173;SDS011;8702;48.130;-1.696;2024-02-21T12:19:59;7.22;;;2.67;;
17173;SDS011;8702;48.130;-1.696;2024-02-21T12:22:26;7.47;;;2.70;;
17173;SDS011;8702;48.130;-1.696;2024-02-21T12:24:53;10.07;;;3.05;;
17173;SDS011;8702;48.130;-1.696;2024-02-21T12:27:20;8.90;;;2.95;;
17173;SDS011;8702;48.130;-1.696;2024-02-21T12:29:48;9.52;;;2.70;;
17173;SDS011;8702;48.130;-1.696;2024-02-21T12:32:16;7.78;;;2.70;;
17173;SDS011;8702;48.130;-1.696;2024-02-21T12:34:43;8.18;;;2.95;;
17173;SDS011;8702;48.130;-1.696;2024-02-21T12:37:11;11.75;;;2.67;;
17173;SDS011;8702;48.130;-1.696;2024-02-21T12:39:40;8.93;;;2.88;;
17173;SDS011;8702;48.130;-1.696;2024-02-21T12:42:08;9.75;;;3.10;;
17173;SDS011;8702;48.130;-1.696;2024-02-21T12:44:37;9.80;;;2.72;;
17173;SDS011;8702;48.130;-1.696;2024-02-21T12:47:04;8.60;;;2.70;;
17173;SDS011;8702;48.130;-1.696;2024-02-21T12:49:31;7.00;;;2.40;;
17173;SDS011;8702;48.130;-1.696;2024-02-21T12:51:58;10.90;;;2.90;;
17173;SDS011;8702;48.130;-1.696;2024-02-21T12:54:27;7.13;;;2.53;;
17173;SDS011;8702;48.130;-1.696;2024-02-21T12:56:55;7.22;;;2.50;;
17173;SDS011;8702;48.130;-1.696;2024-02-21T12:59:22;8.63;;;2.88;;
17173;SDS011;8702;48.130;-1.696;2024-02-21T13:01:51;7.97;;;2.63;;
17173;SDS011;8702;48.130;-1.696;2024-02-21T13:04:18;8.67;;;2.40;;
17173;SDS011;8702;48.130;-1.696;2024-02-21T13:06:46;8.00;;;2.63;;
17173;SDS011;8702;48.130;-1.696;2024-02-21T13:09:13;6.72;;;2.53;;
17173;SDS011;8702;48.130;-1.696;2024-02-21T13:11:42;8.73;;;2.53;;
17173;SDS011;8702;48.130;-1.696;2024-02-21T13:14:11;8.90;;;2.63;;
17173;SDS011;8702;48.130;-1.696;2024-02-21T13:16:38;10.37;;;3.00;;
17173;SDS011;8702;48.130;-1.696;2024-02-21T13:19:05;7.65;;;2.85;;
17173;SDS011;8702;48.130;-1.696;2024-02-21T13:21:33;10.77;;;3.10;;
17173;SDS011;8702;48.130;-1.696;2024-02-21T13:24:00;11.20;;;3.08;;
17173;SDS011;8702;48.130;-1.696;2024-02-21T13:26:27;8.93;;;3.00;;
17173;SDS011;8702;48.130;-1.696;2024-02-21T13:28:55;9.60;;;3.05;;
17173;SDS011;8702;48.130;-1.696;2024-02-21T13:31:23;10.43;;;3.20;;
17173;SDS011;8702;48.130;-1.696;2024-02-21T13:33:50;9.15;;;2.97;;
17173;SDS011;8702;48.130;-1.696;2024-02-21T13:36:17;10.48;;;3.08;;
17173;SDS011;8702;48.130;-1.696;2024-02-21T13:38:45;11.68;;;3.33;;
17173;SDS011;8702;48.130;-1.696;2024-02-21T13:41:12;9.38;;;3.10;;
17173;SDS011;8702;48.130;-1.696;2024-02-21T13:43:39;9.77;;;3.07;;
17173;SDS011;8702;48.130;-1.696;2024-02-21T13:46:07;10.55;;;3.33;;
17173;SDS011;8702;48.130;-1.696;2024-02-21T13:48:36;10.60;;;3.30;;
17173;SDS011;8702;48.130;-1.696;2024-02-21T13:51:04;9.30;;;3.10;;
17173;SDS011;8702;48.130;-1.696;2024-02-21T13:53:31;8.75;;;3.35;;
17173;SDS011;8702;48.130;-1.696;2024-02-21T13:55:59;8.63;;;3.35;;
17173;SDS011;8702;48.130;-1.696;2024-02-21T13:58:26;10.77;;;3.30;;
17173;SDS011;8702;48.130;-1.696;2024-02-21T14:00:53;10.27;;;3.28;;
17173;SDS011;8702;48.130;-1.696;2024-02-21T14:03:22;10.60;;;3.67;;
17173;SDS011;8702;48.130;-1.696;2024-02-21T14:05:50;11.15;;;3.65;;
17173;SDS011;8702;48.130;-1.696;2024-02-21T14:08:17;9.25;;;3.38;;
17173;SDS011;8702;48.130;-1.696;2024-02-21T14:10:45;9.02;;;3.10;;
17173;SDS011;8702;48.130;-1.696;2024-02-21T14:13:12;10.18;;;3.42;;
17173;SDS011;8702;48.130;-1.696;2024-02-21T14:15:41;8.35;;;2.88;;
17173;SDS011;8702;48.130;-1.696;2024-02-21T14:18:10;9.80;;;3.30;;
17173;SDS011;8702;48.130;-1.696;2024-02-21T14:20:39;11.02;;;3.40;;
17173;SDS011;8702;48.130;-1.696;2024-02-21T14:23:06;10.87;;;3.57;;
17173;SDS011;8702;48.130;-1.696;2024-02-21T14:25:33;13.30;;;3.83;;
17173;SDS011;8702;48.130;-1.696;2024-02-21T14:28:00;11.73;;;3.33;;
17173;SDS011;8702;48.130;-1.696;2024-02-21T14:30:27;10.95;;;3.25;;
17173;SDS011;8702;48.130;-1.696;2024-02-21T14:32:54;9.75;;;3.05;;
17173;SDS011;8702;48.130;-1.696;2024-02-21T14:35:22;9.25;;;3.08;;
17173;SDS011;8702;48.130;-1.696;2024-02-21T14:37:50;11.25;;;3.22;;
17173;SDS011;8702;48.130;-1.696;2024-02-21T14:40:18;8.80;;;3.10;;
17173;SDS011;8702;48.130;-1.696;2024-02-21T14:42:45;10.75;;;3.28;;
17173;SDS011;8702;48.130;-1.696;2024-02-21T14:45:12;9.07;;;2.80;;
17173;SDS011;8702;48.130;-1.696;2024-02-21T14:47:40;9.30;;;3.30;;